EGLLEFHK

Guest
Details From EGLL - London Heathrow
To EFHK - Helsinki Vantaa
Flight Number -
Tags Generated
Created
Modified
Stats Distance 1,000 nm / 1,852 km
Max Altitude 0 ft / 0 m
Waypoints 5
Social Downloads 3
Likes 0
Share VATSIM

Download

Looking for another format? Having issues loading an existing format? Contact us
Advertisement - Login to hide

Notes

Generated

Route

EGLL ALINI PEO R1846 EFHK

ID Type Via Altitude Latitude Longitude Leg Dist Tot Dist Heading (true) Name
O EGLL APT - 0 ft / 0 m 51.46477˚ -0.48695˚ - 0 nm - -
ALINI FIX - 0 ft / 0 m 56.41658˚ 10.28176˚ 482 nm 482 nm 48° / 56° -
PEO NDB - 0 ft / 0 m 58.79608˚ 17.04428˚ 260 nm 742 nm 54° / 60° Skavsta Stockholm NDB
R1846 FIX - 0 ft / 0 m 60.33028˚ 24.96450˚ 257 nm 1000 nm 66° / 73° -
O EFHK APT - 0 ft / 0 m 60.33028˚ 24.96450˚ 0 nm 1000 nm 0° / 180° -

Altitude Profile

Advertisement - Login to hide

Weather


0- 5 10 15 20 25 30 35+ Temperature / ° C

Clouds and Precipitation
Forecast for 2018-05-27 12:00 UTC. Updated 3 hours ago

Ground ~20,000 ft ~40,000 ft Winds

EGLL

Details ICAO EGLL (LHR)
Name London Heathrow
Region United Kingdom
Timezone Europe/London (UTC+1.0)
Stats Elevation 83 ft / 25 m (AMSL)
Location 51.471218° -0.460978°
Runways 2
Magnetic Variation 0.494° W

METAR

EGLL 271350Z AUTO VRB03KT 9999 FEW036 26/17 Q1015 TEMPO 4000 +SHRA

Decode

TAF

TAF EGLL 271055Z 2712/2818 06004KT 9999 SCT030 PROB40 TEMPO 2712/2721 VRB15G30KT 2000 +TSRAGR BKN014 BKN030CB BECMG 2721/2724 7000 TEMPO 2800/2808 4000 BR TEMPO 2804/2810 BKN005 BECMG 2808/2811 9999 PROB30 TEMPO 2816/2818 VRB15G25KT 3000 +TSRAGS

Decode

Departure Runways

ID Width Length Bearing (true) Bearing (mag) Surface Threshold Offset Overrun Length
09L 164 ft / 50 m 12,811 ft / 3,905 m 89.64° 90.13° Asphalt 1,004 ft / 306 m 0 ft / 0 m
09R 164 ft / 50 m 12,019 ft / 3,663 m 89.67° 90.16° Asphalt 1,007 ft / 307 m 0 ft / 0 m
27L 164 ft / 50 m 12,019 ft / 3,663 m 269.71° 270.20° Asphalt 0 ft / 0 m 69 ft / 21 m
27R 164 ft / 50 m 12,811 ft / 3,905 m 269.69° 270.18° Asphalt 0 ft / 0 m 69 ft / 21 m

EFHK

Details ICAO EFHK (HEL)
Name Helsinki Vantaa
Region Finland
Timezone Europe/Helsinki (UTC+3.0)
Stats Elevation 179 ft / 55 m (AMSL)
Location 60.320569° 24.952668°
Runways 3
Magnetic Variation 9.024° E

METAR

EFHK 271350Z 33008KT 270V030 CAVOK 20/M01 Q1028 NOSIG

Decode

TAF

TAF EFHK 271134Z 2712/2812 01009KT CAVOK= TAF EFJY 271127Z 2712/2812 34007KT CAVOK

Decode

Destination Runways

ID Width Length Bearing (true) Bearing (mag) Surface Threshold Offset Overrun Length
04L 197 ft / 60 m 9,817 ft / 2,992 m 47.43° 38.41° Asphalt 800 ft / 244 m 0 ft / 0 m
04R 197 ft / 60 m 10,472 ft / 3,192 m 47.46° 38.44° Asphalt 262 ft / 80 m 0 ft / 0 m
15 197 ft / 60 m 9,497 ft / 2,895 m 153.08° 144.06° Asphalt 0 ft / 0 m 198 ft / 60 m
22L 197 ft / 60 m 10,472 ft / 3,192 m 227.50° 218.48° Asphalt 0 ft / 0 m 197 ft / 60 m
22R 197 ft / 60 m 9,817 ft / 2,992 m 227.46° 218.44° Asphalt 912 ft / 278 m 0 ft / 0 m
33 197 ft / 60 m 9,497 ft / 2,895 m 333.10° 324.08° Asphalt 0 ft / 0 m 197 ft / 60 m

Approach Navaids

Runway Type Ident Frequency Range Bearing (true) Bearing (mag) Slope Elevation
04L Localiser HTV 111.90 MHz 18 nm / 33 km 47.47° 38.44° - 179 ft / 55 m (AMSL)
04L Glidescope HTV 111.90 MHz 10 nm / 19 km 47.44° 38.42° 3.00° 179 ft / 55 m (AMSL)
04L DME HTV 111.90 MHz 18 nm / 33 km - - - 165 ft / 50 m (AMSL)
04R Localiser HG 111.50 MHz 18 nm / 33 km 47.50° 38.47° - 147 ft / 45 m (AMSL)
04R Glidescope HG 111.50 MHz 10 nm / 19 km 47.48° 38.45° 3.00° 149 ft / 45 m (AMSL)
04R DME HG 111.50 MHz 18 nm / 33 km - - - 206 ft / 63 m (AMSL)
15 Localiser HL 109.10 MHz 18 nm / 33 km 153.10° 144.08° - 179 ft / 55 m (AMSL)
15 Glidescope HL 109.10 MHz 10 nm / 19 km 153.09° 144.06° 3.00° 220 ft / 67 m (AMSL)
15 DME HL 109.10 MHz 18 nm / 33 km - - - 220 ft / 67 m (AMSL)
22L Localiser HK 110.30 MHz 18 nm / 33 km 227.45° 218.43° - 151 ft / 46 m (AMSL)
22L Glidescope HK 110.30 MHz 10 nm / 19 km 227.48° 218.45° 3.00° 154 ft / 47 m (AMSL)
22L DME HK 110.30 MHz 18 nm / 33 km - - - 205 ft / 62 m (AMSL)
22R Localiser HUO 110.70 MHz 18 nm / 33 km 227.42° 218.40° - 179 ft / 55 m (AMSL)
22R Glidescope HUO 110.70 MHz 10 nm / 19 km 227.44° 218.42° 3.00° 179 ft / 55 m (AMSL)
22R DME HUO 110.70 MHz 18 nm / 33 km - - - 207 ft / 63 m (AMSL)

Popular Alternatives